createdAt,value
2019-06-20T00:01:53.763Z,16.50
2019-06-20T00:04:23.394Z,16.50
2019-06-20T00:06:53.073Z,16.50
2019-06-20T00:09:22.703Z,16.50
2019-06-20T00:11:52.947Z,16.50
2019-06-20T00:14:22.546Z,16.50
2019-06-20T00:16:52.532Z,16.50
2019-06-20T00:19:22.174Z,16.40
2019-06-20T00:21:51.805Z,16.40
2019-06-20T00:24:21.426Z,16.40
2019-06-20T00:26:51.126Z,16.50
2019-06-20T00:29:20.738Z,16.40
2019-06-20T00:31:51.634Z,16.40
2019-06-20T00:34:21.387Z,16.50
2019-06-20T00:36:51.445Z,16.50
2019-06-20T00:39:21.220Z,16.40
2019-06-20T00:41:50.886Z,16.40
2019-06-20T00:44:20.518Z,16.50
2019-06-20T00:46:50.130Z,16.50
2019-06-20T00:49:19.748Z,16.50
2019-06-20T00:51:49.358Z,16.50
2019-06-20T00:54:18.989Z,16.50
2019-06-20T00:56:48.615Z,16.50
2019-06-20T00:59:18.232Z,16.50
2019-06-20T01:01:47.854Z,16.60
2019-06-20T01:04:17.471Z,16.60
2019-06-20T01:06:47.100Z,16.60
2019-06-20T01:09:16.749Z,16.60
2019-06-20T01:11:46.616Z,16.70
2019-06-20T01:14:16.215Z,16.70
2019-06-20T01:16:45.823Z,16.60
2019-06-20T01:19:15.452Z,16.60
2019-06-20T01:21:45.086Z,16.60
2019-06-20T01:24:14.702Z,16.60
2019-06-20T01:26:44.600Z,16.60
2019-06-20T01:29:14.200Z,16.60
2019-06-20T01:31:43.832Z,16.60
2019-06-20T01:34:14.549Z,16.60
2019-06-20T01:36:44.211Z,16.60
2019-06-20T01:39:14.003Z,16.60
2019-06-20T01:41:43.650Z,16.60
2019-06-20T01:44:13.385Z,16.60
2019-06-20T01:46:43.009Z,16.60
2019-06-20T01:49:12.644Z,16.60
2019-06-20T01:51:42.370Z,16.70
2019-06-20T01:54:12.003Z,16.70
2019-06-20T01:56:41.606Z,16.70
2019-06-20T01:59:11.217Z,16.70
2019-06-20T02:01:40.914Z,16.60
2019-06-20T02:04:10.630Z,16.60
2019-06-20T02:06:40.336Z,16.60
2019-06-20T02:09:10.216Z,16.60
2019-06-20T02:11:40.247Z,16.60
2019-06-20T02:14:09.943Z,16.60
2019-06-20T02:16:39.646Z,16.60
2019-06-20T02:19:09.327Z,16.60
2019-06-20T02:21:38.972Z,16.60
2019-06-20T02:24:08.671Z,16.60
2019-06-20T02:26:38.298Z,16.60
2019-06-20T02:29:07.905Z,16.60
2019-06-20T02:31:37.540Z,16.60
2019-06-20T02:34:07.215Z,16.60
2019-06-20T02:36:36.844Z,16.60
2019-06-20T02:39:07.913Z,16.60
2019-06-20T02:41:37.988Z,16.60
2019-06-20T02:44:24.670Z,16.60
2019-06-20T02:46:39.338Z,16.60
2019-06-20T02:49:09.435Z,16.70
2019-06-20T02:51:39.700Z,16.70
2019-06-20T02:54:09.386Z,16.70
2019-06-20T02:56:39.110Z,16.70
2019-06-20T02:59:08.731Z,16.70
2019-06-20T03:01:38.586Z,16.70
2019-06-20T03:04:08.201Z,16.70
2019-06-20T03:06:38.250Z,16.70
2019-06-20T03:09:07.937Z,16.70
2019-06-20T03:11:37.596Z,16.70
2019-06-20T03:14:07.598Z,16.70
2019-06-20T03:16:37.284Z,16.70
2019-06-20T03:19:06.927Z,16.80
2019-06-20T03:21:36.534Z,16.70
2019-06-20T03:24:06.179Z,16.70
2019-06-20T03:26:35.892Z,16.70
2019-06-20T03:29:05.813Z,16.70
2019-06-20T03:31:35.422Z,16.70
2019-06-20T03:34:05.106Z,16.70
2019-06-20T03:36:34.758Z,16.80
2019-06-20T03:39:06.524Z,16.80
2019-06-20T03:41:36.134Z,16.80
2019-06-20T03:44:05.901Z,16.80
2019-06-20T03:46:35.558Z,16.80
2019-06-20T03:49:05.385Z,16.80
2019-06-20T03:51:34.999Z,16.80
2019-06-20T03:54:05.045Z,16.80
2019-06-20T03:56:35.954Z,16.80
2019-06-20T03:59:06.658Z,16.80
2019-06-20T04:01:36.279Z,16.80
2019-06-20T04:04:05.904Z,16.80
2019-06-20T04:06:35.575Z,16.80
2019-06-20T04:09:07.043Z,16.80
2019-06-20T04:11:36.751Z,16.80
2019-06-20T04:14:06.422Z,16.80
2019-06-20T04:16:36.074Z,16.80
2019-06-20T04:19:05.702Z,16.80
2019-06-20T04:21:35.300Z,16.80
2019-06-20T04:24:05.021Z,16.80
2019-06-20T04:26:34.697Z,16.80
2019-06-20T04:29:04.312Z,16.80
2019-06-20T04:31:33.936Z,16.90
2019-06-20T04:34:03.562Z,16.90
2019-06-20T04:36:33.295Z,16.90
2019-06-20T04:39:18.354Z,16.90
2019-06-20T04:41:34.602Z,16.90
2019-06-20T04:44:04.218Z,17.00
2019-06-20T04:46:42.687Z,16.90
2019-06-20T04:49:12.333Z,16.90
2019-06-20T04:51:42.168Z,16.80
2019-06-20T04:54:11.786Z,16.80
2019-06-20T04:56:41.455Z,16.70
2019-06-20T04:59:11.100Z,16.70
2019-06-20T05:01:40.710Z,16.60
2019-06-20T05:04:10.343Z,16.50
2019-06-20T05:06:41.995Z,16.50
2019-06-20T05:09:11.639Z,16.60
2019-06-20T05:11:41.295Z,16.70
2019-06-20T05:14:10.905Z,16.70
2019-06-20T05:16:40.520Z,16.60
2019-06-20T05:19:10.171Z,16.60
2019-06-20T05:21:39.820Z,16.60
2019-06-20T05:24:09.430Z,16.60
2019-06-20T05:26:39.060Z,16.50
2019-06-20T05:29:08.687Z,16.50
2019-06-20T05:31:38.315Z,16.50
2019-06-20T05:34:07.963Z,16.60
2019-06-20T05:36:37.596Z,16.60
2019-06-20T05:39:07.439Z,16.60
2019-06-20T05:41:37.090Z,16.60
2019-06-20T05:44:06.791Z,16.60
2019-06-20T05:46:37.495Z,16.50
2019-06-20T05:49:07.143Z,16.50
2019-06-20T05:51:39.657Z,16.50
2019-06-20T05:54:08.098Z,16.50
2019-06-20T05:56:37.923Z,16.50
2019-06-20T05:59:08.245Z,16.50
2019-06-20T06:01:38.239Z,16.60
2019-06-20T06:04:08.077Z,16.60
2019-06-20T06:06:38.686Z,16.50
2019-06-20T06:09:08.320Z,16.50
2019-06-20T06:11:37.945Z,16.60
2019-06-20T06:14:08.338Z,16.60
2019-06-20T06:16:37.959Z,16.60
2019-06-20T06:19:07.575Z,16.70
2019-06-20T06:21:37.240Z,16.70
2019-06-20T06:24:06.871Z,16.70
2019-06-20T06:26:36.641Z,16.70
2019-06-20T06:29:06.424Z,16.80
2019-06-20T06:31:36.107Z,16.80
2019-06-20T06:34:05.860Z,16.80
2019-06-20T06:36:35.521Z,17.00
2019-06-20T06:39:07.923Z,17.10
2019-06-20T06:41:38.062Z,17.20
2019-06-20T06:44:08.547Z,17.20
2019-06-20T06:46:45.822Z,17.30
2019-06-20T06:49:09.868Z,17.30
2019-06-20T06:51:39.586Z,17.30
2019-06-20T06:54:09.228Z,17.30
2019-06-20T06:56:38.877Z,17.30
2019-06-20T06:59:08.598Z,17.30
2019-06-20T07:01:38.322Z,17.40
2019-06-20T07:04:08.040Z,17.30
2019-06-20T07:06:37.979Z,17.40
2019-06-20T07:09:08.521Z,17.40
2019-06-20T07:11:38.136Z,17.40
2019-06-20T07:14:08.227Z,17.50
2019-06-20T07:16:37.881Z,17.60
2019-06-20T07:19:07.502Z,17.60
2019-06-20T07:21:37.216Z,17.70
2019-06-20T07:24:08.095Z,17.60
2019-06-20T07:26:38.040Z,17.70
2019-06-20T07:29:07.797Z,17.70
2019-06-20T07:31:37.427Z,17.60
2019-06-20T07:34:07.140Z,17.60
2019-06-20T07:36:36.772Z,17.50
2019-06-20T07:39:08.150Z,17.40
2019-06-20T07:41:37.854Z,17.30
2019-06-20T07:44:07.484Z,17.20
2019-06-20T07:46:38.662Z,17.10
2019-06-20T07:49:08.347Z,17.00
2019-06-20T07:51:38.003Z,16.90
2019-06-20T07:54:07.727Z,16.90
2019-06-20T07:56:37.348Z,16.80
2019-06-20T07:59:06.974Z,16.80
2019-06-20T08:01:36.683Z,16.80
2019-06-20T08:04:06.492Z,16.80
2019-06-20T08:06:36.141Z,16.80
2019-06-20T08:09:08.117Z,16.80
2019-06-20T08:11:37.823Z,16.90
2019-06-20T08:14:07.607Z,17.00
2019-06-20T08:16:37.373Z,17.00
2019-06-20T08:19:07.072Z,17.00
2019-06-20T08:21:36.783Z,17.00
2019-06-20T08:24:06.824Z,17.10
2019-06-20T08:26:36.516Z,17.10
2019-06-20T08:29:19.296Z,17.20
2019-06-20T08:31:37.563Z,17.30
2019-06-20T08:34:07.231Z,17.50
2019-06-20T08:36:36.854Z,17.70
2019-06-20T08:39:09.764Z,17.90
2019-06-20T08:41:39.500Z,18.20
2019-06-20T08:44:09.333Z,18.40
2019-06-20T08:46:39.031Z,18.60
2019-06-20T08:49:08.822Z,18.90
2019-06-20T08:51:38.447Z,19.10
2019-06-20T08:54:08.231Z,19.40
2019-06-20T08:56:37.966Z,19.70
2019-06-20T08:59:23.178Z,20.00
2019-06-20T09:01:39.440Z,20.10
2019-06-20T09:04:09.214Z,20.00
2019-06-20T09:06:38.946Z,19.60
2019-06-20T09:09:09.221Z,19.00
2019-06-20T09:11:38.922Z,18.40
2019-06-20T09:14:08.555Z,18.00
2019-06-20T09:16:38.289Z,17.90
2019-06-20T09:19:08.001Z,17.90
2019-06-20T09:21:37.686Z,18.00
2019-06-20T09:24:07.303Z,18.00
2019-06-20T09:26:36.943Z,18.00
2019-06-20T09:29:06.934Z,18.10
2019-06-20T09:31:36.549Z,18.20
2019-06-20T09:34:06.230Z,18.30
2019-06-20T09:36:35.999Z,18.30
2019-06-20T09:39:07.918Z,18.40
2019-06-20T09:41:37.630Z,18.30
2019-06-20T09:44:07.375Z,18.20
2019-06-20T09:46:37.088Z,18.20
2019-06-20T09:49:06.778Z,18.30
2019-06-20T09:51:36.473Z,18.30
2019-06-20T09:54:06.267Z,18.70
2019-06-20T09:56:36.118Z,18.70
2019-06-20T09:59:05.870Z,18.80
2019-06-20T10:01:35.533Z,19.10
2019-06-20T10:04:05.788Z,19.10
2019-06-20T10:06:35.498Z,19.20
2019-06-20T10:09:06.815Z,19.30
2019-06-20T10:11:36.628Z,19.40
2019-06-20T10:14:07.524Z,19.60
2019-06-20T10:16:45.930Z,19.70
2019-06-20T10:19:08.676Z,19.70
2019-06-20T10:21:38.415Z,19.80
2019-06-20T10:24:08.204Z,19.80
2019-06-20T10:26:37.895Z,19.70
2019-06-20T10:29:07.822Z,19.50
2019-06-20T10:31:37.526Z,19.40
2019-06-20T10:34:07.421Z,19.40
2019-06-20T10:36:37.147Z,19.40
2019-06-20T10:39:10.666Z,19.50
2019-06-20T10:41:40.503Z,19.50
2019-06-20T10:44:10.322Z,19.50
2019-06-20T10:46:40.007Z,19.50
2019-06-20T10:49:09.755Z,19.40
2019-06-20T10:51:45.812Z,19.20
2019-06-20T10:54:15.750Z,19.20
2019-06-20T10:56:45.795Z,19.00
2019-06-20T10:59:16.767Z,19.00
2019-06-20T11:01:46.740Z,19.00
2019-06-20T11:04:16.817Z,19.10
2019-06-20T11:06:47.640Z,19.30
2019-06-20T11:09:18.315Z,19.30
2019-06-20T11:11:49.073Z,19.30
2019-06-20T11:14:18.861Z,19.40
2019-06-20T11:16:49.276Z,19.60
2019-06-20T11:19:19.279Z,19.80
2019-06-20T11:21:49.330Z,19.70
2019-06-20T11:24:18.931Z,19.80
2019-06-20T11:26:48.554Z,19.90
2019-06-20T11:29:18.204Z,20.00
2019-06-20T11:31:49.495Z,20.10
2019-06-20T11:34:19.384Z,20.20
2019-06-20T11:36:49.042Z,20.40
2019-06-20T11:39:18.674Z,20.60
2019-06-20T11:41:48.545Z,20.80
2019-06-20T11:44:20.229Z,20.70
2019-06-20T11:46:49.960Z,20.60
2019-06-20T11:49:20.346Z,20.60
2019-06-20T11:51:49.946Z,20.50
2019-06-20T11:54:19.567Z,20.20
2019-06-20T11:56:49.194Z,19.90
2019-06-20T11:59:18.798Z,19.90
2019-06-20T12:01:49.088Z,19.90
2019-06-20T12:04:18.956Z,19.80
2019-06-20T12:06:49.301Z,19.60
2019-06-20T12:09:19.296Z,19.40
2019-06-20T12:11:48.996Z,19.20
2019-06-20T12:14:18.638Z,19.20
2019-06-20T12:16:48.710Z,19.30
2019-06-20T12:19:18.526Z,19.50
2019-06-20T12:21:49.090Z,19.50
2019-06-20T12:24:19.316Z,19.50
2019-06-20T12:26:48.927Z,19.20
2019-06-20T12:29:18.717Z,18.90
2019-06-20T12:31:48.560Z,19.00
2019-06-20T12:34:18.184Z,19.20
2019-06-20T12:36:48.592Z,19.30
2019-06-20T12:39:18.718Z,19.40
2019-06-20T12:41:50.087Z,19.30
2019-06-20T12:44:20.087Z,19.20
2019-06-20T12:46:50.696Z,19.20
2019-06-20T12:49:23.731Z,19.30
2019-06-20T12:51:51.832Z,19.20
2019-06-20T12:54:21.783Z,19.20
2019-06-20T12:56:51.404Z,19.40
2019-06-20T12:59:21.167Z,19.50
2019-06-20T13:01:51.135Z,19.40
2019-06-20T13:04:21.231Z,19.20
2019-06-20T13:06:52.046Z,19.30
2019-06-20T13:09:21.689Z,19.20
2019-06-20T13:11:51.383Z,19.40
2019-06-20T13:14:21.028Z,19.40
2019-06-20T13:16:50.671Z,19.50
2019-06-20T13:19:20.348Z,19.50
2019-06-20T13:21:50.218Z,19.40
2019-06-20T13:24:19.909Z,19.30
2019-06-20T13:26:50.787Z,19.30
2019-06-20T13:29:20.864Z,19.30
2019-06-20T13:32:01.933Z,19.10
2019-06-20T13:34:21.812Z,19.00
2019-06-20T13:36:51.740Z,19.00
2019-06-20T13:39:21.455Z,19.20
2019-06-20T13:41:51.138Z,19.40
2019-06-20T13:44:21.771Z,19.60
2019-06-20T13:46:53.247Z,19.60
2019-06-20T13:49:22.874Z,19.60
2019-06-20T13:51:52.515Z,19.70
2019-06-20T13:54:22.161Z,19.80
2019-06-20T13:56:51.863Z,19.80
2019-06-20T13:59:21.870Z,19.90
2019-06-20T14:02:05.935Z,20.00
2019-06-20T14:04:23.018Z,20.00
2019-06-20T14:06:53.878Z,19.90
2019-06-20T14:09:23.666Z,19.70
2019-06-20T14:11:54.198Z,19.50
2019-06-20T14:14:24.244Z,19.50
2019-06-20T14:16:54.078Z,19.60
2019-06-20T14:19:24.036Z,19.60
2019-06-20T14:21:54.331Z,19.50
2019-06-20T14:24:24.055Z,19.50
2019-06-20T14:26:54.548Z,19.50
2019-06-20T14:29:24.477Z,19.60
2019-06-20T14:31:54.093Z,19.70
2019-06-20T14:34:23.726Z,19.80
2019-06-20T14:36:54.017Z,19.80
2019-06-20T14:39:24.733Z,19.90
2019-06-20T14:41:55.237Z,20.00
2019-06-20T14:44:25.096Z,20.20
2019-06-20T14:46:54.736Z,20.30
2019-06-20T14:49:24.455Z,20.30
2019-06-20T14:51:55.125Z,20.10
2019-06-20T14:54:25.360Z,20.00
2019-06-20T14:56:58.075Z,20.10
2019-06-20T14:59:26.337Z,20.10
2019-06-20T15:01:56.049Z,20.30
2019-06-20T15:04:25.679Z,20.50
2019-06-20T15:06:55.310Z,20.50
2019-06-20T15:09:24.965Z,20.20
2019-06-20T15:11:55.143Z,20.00
2019-06-20T15:14:25.294Z,19.90
2019-06-20T15:16:55.420Z,20.10
2019-06-20T15:19:25.623Z,20.30
2019-06-20T15:21:56.553Z,20.10
2019-06-20T15:24:27.587Z,20.20
2019-06-20T15:26:57.220Z,20.20
2019-06-20T15:29:26.875Z,20.20
2019-06-20T15:31:57.001Z,20.10
2019-06-20T15:34:26.691Z,20.10
2019-06-20T15:36:57.690Z,20.10
2019-06-20T15:39:27.529Z,20.00
2019-06-20T15:41:58.237Z,20.00
2019-06-20T15:44:28.179Z,20.10
2019-06-20T15:46:57.815Z,20.10
2019-06-20T15:49:27.485Z,20.10
2019-06-20T15:51:59.131Z,20.00
2019-06-20T15:54:28.953Z,20.00
2019-06-20T15:56:58.566Z,20.10
2019-06-20T15:59:28.199Z,20.20
2019-06-20T16:01:57.926Z,20.40
2019-06-20T16:04:28.855Z,20.60
2019-06-20T16:06:59.758Z,20.70
2019-06-20T16:09:29.355Z,20.80
2019-06-20T16:11:58.983Z,20.80
2019-06-20T16:14:28.593Z,20.90
2019-06-20T16:16:58.757Z,20.80
2019-06-20T16:19:28.442Z,20.80
2019-06-20T16:21:58.054Z,20.90
2019-06-20T16:24:27.690Z,20.90
2019-06-20T16:26:57.297Z,20.90
2019-06-20T16:29:26.928Z,20.90
2019-06-20T16:31:56.550Z,20.70
2019-06-20T16:34:26.261Z,20.80
2019-06-20T16:37:09.283Z,20.90
2019-06-20T16:39:28.327Z,21.00
2019-06-20T16:41:58.043Z,21.10
2019-06-20T16:44:27.811Z,21.20
2019-06-20T16:46:57.530Z,21.20
2019-06-20T16:49:28.212Z,21.20
2019-06-20T16:51:57.921Z,21.30
2019-06-20T16:54:27.567Z,21.20
2019-06-20T16:56:57.208Z,21.00
2019-06-20T16:59:26.823Z,20.90
2019-06-20T17:01:56.596Z,20.60
2019-06-20T17:04:26.385Z,20.40
2019-06-20T17:06:56.029Z,20.30
2019-06-20T17:09:25.919Z,20.10
2019-06-20T17:11:55.614Z,19.90
2019-06-20T17:14:25.227Z,19.80
2019-06-20T17:16:54.847Z,19.70
2019-06-20T17:19:24.463Z,19.60
2019-06-20T17:21:54.183Z,19.60
2019-06-20T17:24:23.816Z,19.50
2019-06-20T17:26:53.450Z,19.40
2019-06-20T17:29:23.052Z,19.30
2019-06-20T17:31:53.002Z,19.20
2019-06-20T17:34:22.776Z,19.20
2019-06-20T17:36:52.491Z,19.20
2019-06-20T17:39:22.103Z,19.20
2019-06-20T17:41:55.195Z,19.20
2019-06-20T17:44:23.106Z,19.10
2019-06-20T17:46:52.788Z,19.10
2019-06-20T17:49:22.406Z,19.10
2019-06-20T17:51:52.033Z,19.10
2019-06-20T17:54:21.739Z,19.00
2019-06-20T17:56:51.377Z,18.90
2019-06-20T17:59:22.857Z,18.80
2019-06-20T18:01:52.531Z,18.80
2019-06-20T18:04:22.234Z,18.80
2019-06-20T18:06:51.856Z,18.80
2019-06-20T18:09:21.473Z,18.80
2019-06-20T18:11:51.175Z,18.80
2019-06-20T18:14:21.074Z,18.80
2019-06-20T18:16:50.702Z,18.80
2019-06-20T18:19:20.328Z,18.70
2019-06-20T18:21:49.954Z,18.60
2019-06-20T18:24:19.632Z,18.50
2019-06-20T18:26:49.287Z,18.50
2019-06-20T18:29:18.999Z,18.40
2019-06-20T18:31:49.797Z,18.40
2019-06-20T18:34:29.692Z,18.40
2019-06-20T18:36:51.102Z,18.30
2019-06-20T18:39:20.756Z,18.30
2019-06-20T18:41:51.355Z,18.20
2019-06-20T18:44:24.085Z,18.10
2019-06-20T18:46:57.024Z,18.00
2019-06-20T18:49:26.771Z,18.00
2019-06-20T18:51:56.407Z,18.00
2019-06-20T18:54:26.006Z,18.00
2019-06-20T18:56:58.636Z,17.90
2019-06-20T18:59:28.314Z,17.90
2019-06-20T19:01:58.004Z,17.90
2019-06-20T19:04:27.640Z,17.90
2019-06-20T19:06:57.410Z,17.80
2019-06-20T19:09:27.069Z,17.80
2019-06-20T19:11:56.949Z,17.80
2019-06-20T19:14:26.915Z,17.80
2019-06-20T19:16:57.114Z,17.70
2019-06-20T19:19:26.765Z,17.70
2019-06-20T19:21:56.427Z,17.60
2019-06-20T19:24:26.091Z,17.50
2019-06-20T19:26:55.765Z,17.40
2019-06-20T19:29:26.448Z,17.40
2019-06-20T19:31:56.138Z,17.30
2019-06-20T19:34:25.805Z,17.30
2019-06-20T19:36:55.465Z,17.30
2019-06-20T19:39:25.159Z,17.20
2019-06-20T19:41:54.807Z,17.20
2019-06-20T19:44:24.422Z,17.10
2019-06-20T19:46:54.134Z,17.20
2019-06-20T19:49:23.734Z,17.20
2019-06-20T19:51:53.422Z,17.10
2019-06-20T19:54:23.194Z,17.10
2019-06-20T19:56:52.866Z,17.10
2019-06-20T19:59:22.554Z,17.10
2019-06-20T20:01:52.259Z,17.10
2019-06-20T20:04:21.936Z,17.10
2019-06-20T20:06:51.637Z,17.00
2019-06-20T20:09:21.495Z,17.00
2019-06-20T20:11:51.196Z,17.00
2019-06-20T20:14:21.166Z,16.90
2019-06-20T20:16:51.063Z,16.90
2019-06-20T20:19:20.873Z,17.00
2019-06-20T20:21:50.524Z,17.00
2019-06-20T20:24:20.426Z,17.00
2019-06-20T20:26:50.054Z,16.90
2019-06-20T20:29:19.652Z,16.90
2019-06-20T20:31:49.319Z,16.90
2019-06-20T20:34:18.926Z,16.90
2019-06-20T20:36:48.535Z,16.80
2019-06-20T20:39:18.240Z,16.80
2019-06-20T20:41:47.830Z,16.70
2019-06-20T20:44:17.471Z,16.70
2019-06-20T20:46:47.098Z,16.70
2019-06-20T20:49:16.694Z,16.70
2019-06-20T20:51:46.311Z,16.70
2019-06-20T20:54:15.938Z,16.60
2019-06-20T20:56:45.572Z,16.60
2019-06-20T20:59:15.187Z,16.60
2019-06-20T21:01:44.875Z,16.60
2019-06-20T21:04:14.490Z,16.50
2019-06-20T21:06:44.153Z,16.50
2019-06-20T21:09:13.777Z,16.40
2019-06-20T21:11:43.394Z,16.40
2019-06-20T21:14:13.982Z,16.40
2019-06-20T21:16:43.584Z,16.30
2019-06-20T21:19:13.190Z,16.30
2019-06-20T21:21:42.851Z,16.30
2019-06-20T21:24:12.523Z,16.20
2019-06-20T21:26:49.394Z,16.20
2019-06-20T21:29:13.490Z,16.20
2019-06-20T21:31:43.147Z,16.10
2019-06-20T21:34:14.087Z,16.10
2019-06-20T21:36:43.726Z,16.00
2019-06-20T21:39:13.424Z,16.00
2019-06-20T21:41:43.031Z,16.00
2019-06-20T21:44:12.669Z,16.00
2019-06-20T21:46:42.656Z,15.90
2019-06-20T21:49:12.270Z,15.90
2019-06-20T21:51:44.648Z,15.90
2019-06-20T21:54:13.214Z,15.80
2019-06-20T21:56:42.930Z,15.80
2019-06-20T21:59:12.564Z,15.80
2019-06-20T22:01:42.305Z,15.80
2019-06-20T22:04:12.261Z,15.80
2019-06-20T22:06:42.118Z,15.80
2019-06-20T22:09:12.515Z,15.80
2019-06-20T22:11:42.553Z,15.80
2019-06-20T22:14:12.237Z,15.80
2019-06-20T22:16:41.842Z,15.90
2019-06-20T22:19:11.447Z,15.90
2019-06-20T22:21:41.231Z,15.90
2019-06-20T22:24:10.842Z,15.90
2019-06-20T22:26:40.570Z,15.90
2019-06-20T22:29:10.175Z,16.00
2019-06-20T22:31:39.801Z,16.00
2019-06-20T22:34:10.591Z,16.00
2019-06-20T22:36:40.827Z,16.00
2019-06-20T22:39:12.190Z,16.00
2019-06-20T22:41:41.793Z,16.00
2019-06-20T22:44:11.407Z,16.00
2019-06-20T22:46:41.100Z,16.00
2019-06-20T22:49:10.739Z,16.00
2019-06-20T22:51:40.416Z,16.00
2019-06-20T22:54:10.099Z,15.90
2019-06-20T22:56:39.792Z,15.90
2019-06-20T22:59:09.415Z,15.90
2019-06-20T23:01:39.035Z,15.90
2019-06-20T23:04:08.734Z,15.80
2019-06-20T23:06:38.403Z,15.80
2019-06-20T23:09:08.556Z,15.70
2019-06-20T23:11:38.239Z,15.70
2019-06-20T23:14:07.924Z,15.60
2019-06-20T23:16:37.627Z,15.60
2019-06-20T23:19:07.325Z,15.50
2019-06-20T23:21:36.958Z,15.50
2019-06-20T23:24:06.658Z,15.40
2019-06-20T23:26:36.275Z,15.30
2019-06-20T23:29:34.370Z,15.30
2019-06-20T23:32:03.994Z,15.20
2019-06-20T23:34:33.595Z,15.20
2019-06-20T23:37:12.858Z,15.10
2019-06-20T23:39:35.595Z,15.00
2019-06-20T23:42:05.288Z,15.00
2019-06-20T23:44:35.154Z,14.90
2019-06-20T23:47:04.933Z,14.80
2019-06-20T23:49:34.734Z,14.70
2019-06-20T23:52:09.782Z,14.70
2019-06-20T23:54:39.401Z,14.60
2019-06-20T23:57:08.998Z,14.50
2019-06-20T23:59:38.646Z,14.50
